Time;durP1;ratioP1;P1;durP2;ratioP2;P2;SDS_P1;SDS_P2;PMS_P1;PMS_P2;Temp;Humidity;BMP_temperature;BMP_pressure;BME280_temperature;BME280_humidity;BME280_pressure;Samples;Min_cycle;Max_cycle;Signal;HPM_P1;HPM_P2
2021/12/28 00:01:49;;;;;;;28.45;13.25;;;;;;;2.23;100.00;99181.53;5291389;27;20106;-79
2021/12/28 00:04:19;;;;;;;25.08;13.25;;;;;;;2.21;100.00;99187.59;5277398;27;20053;-79
2021/12/28 00:06:50;;;;;;;24.40;13.40;;;;;;;2.19;100.00;99179.06;5298698;27;20027;-79
2021/12/28 00:09:20;;;;;;;26.50;13.70;;;;;;;2.21;100.00;99173.00;5296540;27;20417;-79
2021/12/28 00:11:50;;;;;;;28.05;13.38;;;;;;;2.23;100.00;99175.50;5298997;27;20035;-79
2021/12/28 00:14:23;;;;;;;24.70;13.30;;;;;;;2.17;100.00;99175.66;5296415;27;20055;-79
2021/12/28 00:19:42;;;;;;;23.05;11.70;;;;;;;2.31;100.00;99163.28;5286278;28;20038;-79
2021/12/28 00:22:12;;;;;;;24.98;13.57;;;;;;;2.22;100.00;99159.22;5294684;27;20015;-78
2021/12/28 00:24:43;;;;;;;28.40;13.13;;;;;;;2.18;100.00;99159.31;5295681;27;20032;-79
2021/12/28 00:27:13;;;;;;;28.35;12.65;;;;;;;2.15;100.00;99154.25;5299479;27;20027;-79
2021/12/28 00:29:44;;;;;;;25.60;13.02;;;;;;;2.06;100.00;99152.75;5288860;27;20377;-78
2021/12/28 00:32:14;;;;;;;22.05;12.10;;;;;;;2.04;100.00;99163.97;5300287;27;20029;-78
2021/12/28 00:34:44;;;;;;;22.80;12.73;;;;;;;2.00;100.00;99157.19;5295723;27;20038;-79
2021/12/28 00:37:14;;;;;;;20.75;11.77;;;;;;;2.08;100.00;99150.13;5298779;27;20535;-82
2021/12/28 00:39:45;;;;;;;19.63;10.68;;;;;;;1.97;100.00;99160.69;5294894;27;20072;-81
2021/12/28 00:42:15;;;;;;;21.85;11.45;;;;;;;2.11;100.00;99153.47;5290055;27;20119;-80
2021/12/28 00:44:45;;;;;;;23.30;11.93;;;;;;;2.21;100.00;99146.34;5294909;27;20381;-79
2021/12/28 00:47:16;;;;;;;23.15;11.38;;;;;;;2.16;100.00;99153.38;5276428;28;20393;-78
2021/12/28 00:49:46;;;;;;;20.00;10.82;;;;;;;2.20;100.00;99148.06;5285291;27;20051;-79
2021/12/28 00:52:17;;;;;;;20.17;11.07;;;;;;;2.25;100.00;99147.97;5294849;27;20037;-82
2021/12/28 00:54:47;;;;;;;22.02;11.50;;;;;;;2.31;100.00;99140.09;5295428;27;20023;-81
2021/12/28 00:57:17;;;;;;;23.50;11.52;;;;;;;2.34;100.00;99145.16;5298955;27;20030;-79
2021/12/28 00:59:48;;;;;;;21.52;11.23;;;;;;;2.43;100.00;99148.34;5288108;27;20088;-78
2021/12/28 01:02:19;;;;;;;20.63;11.23;;;;;;;2.47;100.00;99146.56;5274776;27;20060;-77
2021/12/28 01:04:49;;;;;;;22.00;10.88;;;;;;;2.48;100.00;99140.50;5298673;27;20072;-77
2021/12/28 01:07:19;;;;;;;19.27;10.18;;;;;;;2.50;100.00;99136.97;5293181;27;20062;-82
2021/12/28 01:09:50;;;;;;;23.80;10.93;;;;;;;2.50;100.00;99134.41;5277898;27;20026;-79
2021/12/28 01:12:20;;;;;;;23.05;11.20;;;;;;;2.45;100.00;99130.25;5293824;27;20038;-81
2021/12/28 01:14:51;;;;;;;22.73;11.18;;;;;;;2.46;100.00;99125.06;5297172;27;20086;-80
2021/12/28 01:17:21;;;;;;;20.60;10.43;;;;;;;2.48;100.00;99115.56;5274340;27;20035;-81
2021/12/28 01:19:51;;;;;;;19.92;11.30;;;;;;;2.37;100.00;99114.97;5289708;27;20110;-78
2021/12/28 01:22:22;;;;;;;19.70;10.65;;;;;;;2.26;100.00;99106.72;5294187;27;20023;-80
2021/12/28 01:24:52;;;;;;;22.08;10.65;;;;;;;2.29;100.00;99113.50;5294397;27;20027;-80
2021/12/28 01:27:22;;;;;;;20.13;10.52;;;;;;;2.27;100.00;99108.41;5294211;27;20446;-79
2021/12/28 01:29:53;;;;;;;24.05;11.10;;;;;;;2.13;100.00;99114.81;5292707;27;20024;-79
2021/12/28 01:32:23;;;;;;;21.42;11.25;;;;;;;2.05;100.00;99111.56;5296960;27;20015;-78
2021/12/28 01:34:53;;;;;;;22.33;11.60;;;;;;;2.17;100.00;99112.09;5295540;27;20050;-78
2021/12/28 01:37:24;;;;;;;22.08;11.70;;;;;;;2.10;100.00;99107.13;5295790;27;20050;-78
2021/12/28 01:39:54;;;;;;;21.17;10.50;;;;;;;2.07;100.00;99108.06;5294593;27;20024;-78
2021/12/28 01:42:24;;;;;;;22.60;11.18;;;;;;;2.10;100.00;99100.25;5277758;27;20114;-78
2021/12/28 01:44:55;;;;;;;24.52;11.57;;;;;;;2.05;100.00;99109.84;5287160;27;20027;-78
2021/12/28 01:47:25;;;;;;;22.85;11.43;;;;;;;2.06;100.00;99098.66;5292940;27;20421;-78
2021/12/28 01:49:55;;;;;;;20.85;11.70;;;;;;;2.00;100.00;99091.06;5292068;27;20508;-78
2021/12/28 01:52:26;;;;;;;26.80;12.98;;;;;;;2.07;100.00;99086.59;5295527;27;20282;-77
2021/12/28 01:54:56;;;;;;;21.90;11.25;;;;;;;2.12;100.00;99084.75;5294636;27;20098;-79
2021/12/28 01:57:26;;;;;;;22.73;11.23;;;;;;;2.03;100.00;99072.94;5289457;27;20454;-78
2021/12/28 01:59:57;;;;;;;22.08;11.85;;;;;;;2.15;100.00;99079.53;5292052;27;20034;-78
2021/12/28 02:02:27;;;;;;;20.33;11.20;;;;;;;2.24;100.00;99075.00;5294565;27;20027;-80
2021/12/28 02:04:57;;;;;;;20.77;11.07;;;;;;;2.29;100.00;99080.00;5293966;27;20024;-81
2021/12/28 02:07:27;;;;;;;22.30;11.13;;;;;;;2.35;100.00;99082.44;5294073;27;20354;-80
2021/12/28 02:09:58;;;;;;;24.23;12.25;;;;;;;2.29;100.00;99083.44;5294081;27;20028;-79
2021/12/28 02:12:29;;;;;;;25.50;11.48;;;;;;;2.30;100.00;99084.28;5293505;27;20050;-78
2021/12/28 02:15:06;;;;;;;23.23;11.48;;;;;;;2.26;100.00;99088.66;5295008;27;20055;-80
2021/12/28 02:17:36;;;;;;;22.45;12.00;;;;;;;2.26;100.00;99082.66;5292390;27;20028;-79
2021/12/28 02:20:19;;;;;;;21.42;11.57;;;;;;;2.33;100.00;99076.47;5282757;28;20042;-77
2021/12/28 02:22:49;;;;;;;21.30;10.90;;;;;;;2.34;100.00;99071.25;5289352;27;20016;-79
2021/12/28 02:25:20;;;;;;;22.98;11.77;;;;;;;2.26;100.00;99077.50;5295041;27;20023;-82
2021/12/28 02:27:50;;;;;;;21.90;11.60;;;;;;;2.25;100.00;99075.81;5287053;27;20540;-80
2021/12/28 02:30:21;;;;;;;26.00;12.32;;;;;;;2.19;100.00;99076.81;5287035;27;20533;-79
2021/12/28 02:32:52;;;;;;;25.30;12.68;;;;;;;2.11;100.00;99073.59;5274535;27;20023;-80
2021/12/28 02:35:25;;;;;;;26.38;12.68;;;;;;;2.06;100.00;99072.91;5294105;27;20055;-79
2021/12/28 02:37:56;;;;;;;26.20;12.57;;;;;;;2.03;100.00;99072.13;5293461;27;20032;-80
2021/12/28 02:40:28;;;;;;;24.20;12.35;;;;;;;2.00;100.00;99072.19;5293071;27;20087;-80
2021/12/28 02:43:01;;;;;;;25.42;12.57;;;;;;;2.06;100.00;99077.19;5294174;27;20067;-79
2021/12/28 02:45:36;;;;;;;23.33;13.07;;;;;;;2.08;100.00;99075.41;5292924;27;20032;-80
2021/12/28 02:48:07;;;;;;;25.10;12.15;;;;;;;2.14;100.00;99070.13;5291048;28;20493;-79
2021/12/28 02:50:41;;;;;;;25.67;12.73;;;;;;;2.19;100.00;99071.66;5282453;28;20034;-79
2021/12/28 02:53:12;;;;;;;25.37;12.50;;;;;;;2.22;100.00;99075.91;5287105;28;20028;-79
2021/12/28 02:55:42;;;;;;;26.48;13.13;;;;;;;2.18;100.00;99058.84;5295153;28;20031;-79
2021/12/28 02:58:30;;;;;;;26.80;13.27;;;;;;;2.21;100.00;99064.78;5285077;28;20438;-80
2021/12/28 03:01:23;;;;;;;26.80;12.63;;;;;;;2.19;100.00;99057.97;5289825;28;20252;-80
2021/12/28 03:03:58;;;;;;;26.88;12.55;;;;;;;2.15;100.00;99051.19;5290782;28;20045;-79
2021/12/28 03:06:28;;;;;;;26.60;12.50;;;;;;;2.14;100.00;99052.09;5274781;28;20541;-78
2021/12/28 03:09:00;;;;;;;23.23;12.02;;;;;;;2.19;100.00;99060.53;5293956;28;20032;-79
2021/12/28 03:11:31;;;;;;;21.27;11.75;;;;;;;2.16;100.00;99058.88;5293233;28;20483;-78
2021/12/28 03:14:03;;;;;;;24.48;12.30;;;;;;;2.21;100.00;99054.47;5291430;28;20040;-79
2021/12/28 03:16:34;;;;;;;22.80;11.13;;;;;;;2.39;100.00;99047.94;5294032;28;20031;-79
2021/12/28 03:19:05;;;;;;;28.30;12.18;;;;;;;2.44;100.00;99048.66;5283714;28;20061;-78
2021/12/28 03:21:35;;;;;;;26.20;12.18;;;;;;;2.49;100.00;99041.66;5286950;28;20023;-78
2021/12/28 03:24:07;;;;;;;25.33;12.00;;;;;;;2.54;100.00;99042.38;5294534;28;20045;-79
2021/12/28 03:26:38;;;;;;;22.60;11.68;;;;;;;2.62;100.00;99037.84;5291792;28;20041;-78
2021/12/28 03:29:09;;;;;;;22.17;11.43;;;;;;;2.63;100.00;99036.94;5280308;28;20550;-78
2021/12/28 03:31:39;;;;;;;22.23;11.65;;;;;;;2.69;100.00;99031.63;5276425;28;20023;-78
2021/12/28 03:34:09;;;;;;;20.45;10.88;;;;;;;2.78;100.00;99018.44;5291475;28;20031;-78
2021/12/28 03:36:41;;;;;;;24.17;12.20;;;;;;;2.92;100.00;99024.06;5295235;28;20289;-79
2021/12/28 03:39:11;;;;;;;22.02;11.43;;;;;;;2.78;100.00;99015.88;5268180;28;20054;-78
2021/12/28 03:41:41;;;;;;;22.73;11.65;;;;;;;2.85;100.00;99013.06;5286780;28;20103;-78
2021/12/28 03:44:14;;;;;;;22.65;11.88;;;;;;;2.79;100.00;99012.41;5247911;28;20424;-80
2021/12/28 03:46:44;;;;;;;20.52;10.80;;;;;;;2.72;100.00;99005.75;5278004;28;20448;-78
2021/12/28 03:49:15;;;;;;;22.15;11.18;;;;;;;2.76;100.00;99008.19;5283546;28;20066;-79
2021/12/28 03:51:45;;;;;;;18.38;10.13;;;;;;;2.83;100.00;99007.13;5286450;27;20027;-79
2021/12/28 03:54:15;;;;;;;19.65;10.55;;;;;;;2.77;100.00;99003.88;5298265;27;20023;-79
2021/12/28 03:56:46;;;;;;;18.83;10.30;;;;;;;2.72;100.00;99000.59;5294319;27;20030;-80
2021/12/28 03:59:16;;;;;;;19.40;10.35;;;;;;;2.75;100.00;98997.91;5298251;27;20611;-80
2021/12/28 04:01:46;;;;;;;21.67;10.85;;;;;;;2.71;100.00;98989.41;5297499;27;20027;-78
2021/12/28 04:04:17;;;;;;;23.17;10.88;;;;;;;2.73;100.00;98989.38;5294899;27;20046;-79
2021/12/28 04:06:47;;;;;;;22.95;11.25;;;;;;;2.78;100.00;98979.75;5297893;27;20023;-78
2021/12/28 04:09:34;;;;;;;19.20;9.77;;;;;;;2.82;100.00;98981.38;5295124;27;20023;-78
2021/12/28 04:12:05;;;;;;;20.70;10.63;;;;;;;2.86;100.00;98977.81;5295564;27;20485;-80
2021/12/28 04:14:35;;;;;;;20.10;10.90;;;;;;;2.82;100.00;98976.22;5297100;27;20023;-80
2021/12/28 04:17:06;;;;;;;23.63;11.57;;;;;;;2.81;100.00;98977.09;5294792;27;20019;-80
2021/12/28 04:19:36;;;;;;;22.55;10.93;;;;;;;2.70;100.00;98971.44;5286662;27;20691;-78
2021/12/28 04:22:07;;;;;;;19.67;10.82;;;;;;;2.74;100.00;98979.03;5272427;27;20126;-78
2021/12/28 04:24:37;;;;;;;23.10;11.95;;;;;;;2.77;100.00;98972.94;5294899;27;20511;-79
2021/12/28 04:27:08;;;;;;;24.00;12.23;;;;;;;2.74;100.00;98983.34;5296624;27;20064;-80
2021/12/28 04:29:40;;;;;;;20.75;11.10;;;;;;;2.76;100.00;98977.25;5294585;27;20642;-80
2021/12/28 04:32:10;;;;;;;21.33;11.27;;;;;;;2.80;100.00;98972.81;5294282;27;20022;-80
2021/12/28 04:34:40;;;;;;;22.85;11.13;;;;;;;2.70;100.00;98979.16;5292766;27;20028;-78
2021/12/28 04:37:11;;;;;;;23.00;11.68;;;;;;;2.78;100.00;98977.19;5279628;27;20038;-79
2021/12/28 04:39:41;;;;;;;22.17;11.70;;;;;;;2.88;100.00;98973.44;5275663;28;20019;-79
2021/12/28 04:42:11;;;;;;;23.50;11.68;;;;;;;2.89;100.00;98977.72;5290642;27;20022;-78
2021/12/28 04:44:42;;;;;;;23.20;11.88;;;;;;;2.83;100.00;98968.44;5298768;27;20112;-79
2021/12/28 04:47:12;;;;;;;24.42;11.77;;;;;;;2.90;100.00;98964.78;5294527;27;20039;-78
2021/12/28 04:49:45;;;;;;;20.27;10.85;;;;;;;2.75;100.00;98972.13;5286902;27;20023;-79
2021/12/28 04:52:16;;;;;;;23.33;11.50;;;;;;;2.81;100.00;98967.63;5294445;27;20578;-79
2021/12/28 04:54:46;;;;;;;19.60;10.68;;;;;;;2.85;100.00;98971.81;5294978;27;20062;-78
2021/12/28 04:57:17;;;;;;;22.15;11.48;;;;;;;2.76;100.00;98976.41;5294296;27;20023;-79
2021/12/28 04:59:47;;;;;;;20.55;11.32;;;;;;;2.74;100.00;98970.44;5295528;27;20023;-78
2021/12/28 05:02:17;;;;;;;23.00;10.85;;;;;;;2.78;100.00;98964.28;5294793;27;20030;-80
2021/12/28 05:04:48;;;;;;;20.42;11.05;;;;;;;2.73;100.00;98961.03;5277973;27;20412;-79
2021/12/28 05:07:18;;;;;;;20.48;11.20;;;;;;;2.76;100.00;98963.50;5294815;27;20020;-78
2021/12/28 05:09:49;;;;;;;20.20;10.73;;;;;;;2.69;100.00;98957.69;5296004;27;20027;-78
2021/12/28 05:12:19;;;;;;;18.80;10.40;;;;;;;2.68;100.00;98960.31;5294833;27;20024;-79
2021/12/28 05:14:50;;;;;;;20.25;10.60;;;;;;;2.65;100.00;98957.84;5294008;27;20478;-79
2021/12/28 05:17:20;;;;;;;20.52;11.23;;;;;;;2.71;100.00;98947.34;5296759;27;20030;-78
2021/12/28 05:19:50;;;;;;;17.77;10.55;;;;;;;2.70;100.00;98948.22;5283661;28;20431;-80
2021/12/28 05:22:21;;;;;;;20.33;11.15;;;;;;;2.73;100.00;98945.53;5293753;27;20043;-81
2021/12/28 05:24:51;;;;;;;18.63;10.30;;;;;;;2.66;100.00;98944.06;5295479;27;20523;-80
2021/12/28 05:27:21;;;;;;;18.77;10.40;;;;;;;2.65;100.00;98932.06;5296783;27;20027;-78
2021/12/28 05:29:52;;;;;;;19.98;10.73;;;;;;;2.67;100.00;98930.28;5302799;27;20023;-79
2021/12/28 05:32:22;;;;;;;19.58;9.95;;;;;;;2.66;100.00;98928.59;5291126;27;20027;-79
2021/12/28 05:34:52;;;;;;;19.63;11.07;;;;;;;2.78;100.00;98925.59;5277664;27;20035;-79
2021/12/28 05:37:23;;;;;;;20.05;10.45;;;;;;;2.74;100.00;98924.03;5294109;27;20015;-79
2021/12/28 05:39:54;;;;;;;20.17;10.45;;;;;;;2.77;100.00;98921.34;5295810;27;20027;-79
2021/12/28 05:42:24;;;;;;;19.17;9.70;;;;;;;2.74;100.00;98906.84;5278278;27;20608;-79
2021/12/28 05:44:54;;;;;;;18.70;9.77;;;;;;;2.79;100.00;98914.41;5280384;28;20118;-78
2021/12/28 05:47:25;;;;;;;17.95;9.90;;;;;;;2.72;100.00;98912.91;5284227;28;20443;-79
2021/12/28 05:49:55;;;;;;;17.17;9.35;;;;;;;2.71;100.00;98906.06;5282241;28;20011;-79
2021/12/28 05:52:25;;;;;;;20.38;10.30;;;;;;;2.60;100.00;98905.56;5259390;28;20484;-78
2021/12/28 05:54:56;;;;;;;18.45;9.27;;;;;;;2.54;100.00;98898.00;5265676;27;20069;-78
2021/12/28 05:57:27;;;;;;;18.88;8.93;;;;;;;2.65;100.00;98895.97;5293693;27;20031;-78
2021/12/28 05:59:58;;;;;;;20.02;9.65;;;;;;;2.60;100.00;98903.84;5302156;27;20058;-78
2021/12/28 06:02:28;;;;;;;16.55;9.48;;;;;;;2.61;100.00;98902.06;5292418;27;20055;-78
2021/12/28 06:04:58;;;;;;;19.50;9.23;;;;;;;2.60;100.00;98902.97;5294470;27;20029;-79
2021/12/28 06:07:28;;;;;;;18.17;10.02;;;;;;;2.62;100.00;98907.19;5295553;27;20499;-79
2021/12/28 06:09:59;;;;;;;19.58;9.27;;;;;;;2.54;100.00;98898.84;5276124;27;20023;-79
2021/12/28 06:12:29;;;;;;;17.35;9.52;;;;;;;2.56;100.00;98888.50;5291161;27;20031;-79
2021/12/28 06:15:00;;;;;;;18.08;9.75;;;;;;;2.48;100.00;98896.47;5303070;27;20034;-79
2021/12/28 06:17:30;;;;;;;19.80;9.82;;;;;;;2.62;100.00;98890.88;5302968;27;20727;-81
2021/12/28 06:20:00;;;;;;;19.75;10.30;;;;;;;2.55;100.00;98892.81;5283159;28;20041;-83
2021/12/28 06:22:31;;;;;;;19.73;10.02;;;;;;;2.58;100.00;98897.03;5284058;28;20610;-79
2021/12/28 06:25:03;;;;;;;16.55;9.60;;;;;;;2.56;100.00;98904.81;5283454;28;20028;-80
2021/12/28 06:27:33;;;;;;;18.73;9.75;;;;;;;2.52;100.00;98897.22;5286844;27;20073;-78
2021/12/28 06:30:05;;;;;;;21.38;10.30;;;;;;;2.54;100.00;98898.00;5284122;27;20039;-80
2021/12/28 06:32:35;;;;;;;17.80;9.52;;;;;;;2.62;100.00;98890.88;5287385;27;20035;-81
2021/12/28 06:35:06;;;;;;;23.88;10.27;;;;;;;2.57;100.00;98888.47;5290295;27;20029;-78
2021/12/28 06:37:37;;;;;;;19.45;9.50;;;;;;;2.56;100.00;98893.66;5273870;28;20055;-82
2021/12/28 06:40:08;;;;;;;18.40;9.73;;;;;;;2.67;100.00;98889.84;5294530;27;20452;-81
2021/12/28 06:42:39;;;;;;;18.65;10.02;;;;;;;2.66;100.00;98897.66;5284469;28;20630;-78
2021/12/28 06:45:11;;;;;;;18.48;10.00;;;;;;;2.62;100.00;98898.63;5292277;27;20031;-84
2021/12/28 06:47:41;;;;;;;20.75;9.32;;;;;;;2.64;100.00;98902.84;5291286;27;20336;-81
2021/12/28 06:50:11;;;;;;;19.27;10.05;;;;;;;2.66;100.00;98898.47;5297609;28;20019;-82
2021/12/28 06:52:42;;;;;;;18.60;9.25;;;;;;;2.64;100.00;98900.25;5290749;28;20035;-79
2021/12/28 06:55:12;;;;;;;18.38;9.45;;;;;;;2.66;100.00;98900.22;5282458;28;20496;-78
2021/12/28 06:57:43;;;;;;;19.75;10.10;;;;;;;2.63;100.00;98892.56;5286597;28;20161;-78
2021/12/28 07:00:16;;;;;;;16.17;9.30;;;;;;;2.60;100.00;98896.09;5285536;28;20497;-78
2021/12/28 07:02:46;;;;;;;18.63;9.48;;;;;;;2.58;100.00;98899.59;5291335;28;20481;-78
2021/12/28 07:05:17;;;;;;;18.52;9.38;;;;;;;2.63;100.00;98897.72;5293042;28;20023;-78
2021/12/28 07:07:47;;;;;;;20.42;10.18;;;;;;;2.70;100.00;98899.22;5288000;28;20106;-79
2021/12/28 07:10:20;;;;;;;17.50;9.60;;;;;;;2.70;100.00;98899.22;5292961;27;20505;-81
2021/12/28 07:12:51;;;;;;;19.23;9.93;;;;;;;2.67;100.00;98894.19;5290205;28;20051;-78
2021/12/28 07:15:22;;;;;;;20.80;9.75;;;;;;;2.63;100.00;98897.72;5291695;28;20366;-80
2021/12/28 07:17:52;;;;;;;17.48;9.07;;;;;;;2.62;100.00;98896.88;5289980;28;20389;-82
2021/12/28 07:20:23;;;;;;;17.35;9.48;;;;;;;2.60;100.00;98896.09;5281746;28;20027;-80
2021/12/28 07:22:53;;;;;;;19.65;9.77;;;;;;;2.62;100.00;98886.56;5273295;28;20019;-80
2021/12/28 07:25:24;;;;;;;18.00;8.90;;;;;;;2.64;100.00;98889.09;5292360;28;20316;-80
2021/12/28 07:27:55;;;;;;;17.08;8.50;;;;;;;2.56;100.00;98891.06;5293233;27;20031;-79
2021/12/28 07:30:26;;;;;;;19.27;9.40;;;;;;;2.62;100.00;98893.47;5299869;27;20491;-80
2021/12/28 07:32:56;;;;;;;18.58;9.23;;;;;;;2.58;100.00;98885.00;5297808;27;20043;-80
2021/12/28 07:35:26;;;;;;;18.85;9.40;;;;;;;2.67;100.00;98870.97;5287269;27;20055;-79
2021/12/28 07:37:57;;;;;;;18.35;9.77;;;;;;;2.62;100.00;98875.41;5288763;27;20019;-78
2021/12/28 07:40:27;;;;;;;17.00;8.90;;;;;;;2.59;100.00;98866.06;5291944;27;20081;-79
2021/12/28 07:42:57;;;;;;;18.23;8.98;;;;;;;2.63;100.00;98871.94;5292898;27;20096;-79
2021/12/28 07:45:28;;;;;;;17.55;8.90;;;;;;;2.55;100.00;98882.50;5296108;27;20027;-80
2021/12/28 07:47:58;;;;;;;17.08;9.13;;;;;;;2.54;100.00;98877.41;5292606;27;20672;-79
2021/12/28 07:50:28;;;;;;;15.05;8.45;;;;;;;2.48;100.00;98875.84;5300941;27;20285;-80
2021/12/28 07:52:58;;;;;;;19.20;9.38;;;;;;;2.62;100.00;98880.56;5277744;27;20031;-79
2021/12/28 07:55:29;;;;;;;16.30;8.40;;;;;;;2.48;100.00;98872.44;5289961;27;20032;-79
2021/12/28 07:57:59;;;;;;;16.63;8.27;;;;;;;2.35;100.00;98868.53;5295959;27;20480;-79
2021/12/28 08:00:30;;;;;;;16.92;7.85;;;;;;;2.32;100.00;98871.22;5301069;27;20153;-80
2021/12/28 08:03:03;;;;;;;17.60;8.43;;;;;;;2.34;100.00;98866.84;5295379;27;20035;-79
2021/12/28 08:05:35;;;;;;;15.57;8.05;;;;;;;2.37;100.00;98864.19;5299070;27;20388;-80
2021/12/28 08:08:06;;;;;;;17.10;7.97;;;;;;;2.65;100.00;98865.03;5276330;27;20587;-80
2021/12/28 08:10:36;;;;;;;16.08;8.13;;;;;;;2.83;100.00;98859.28;5296993;27;20031;-79
2021/12/28 08:13:06;;;;;;;15.18;8.30;;;;;;;2.96;100.00;98860.53;5293999;27;20027;-81
2021/12/28 08:15:37;;;;;;;15.50;8.25;;;;;;;3.04;100.00;98856.81;5297781;27;20111;-80
2021/12/28 08:18:09;;;;;;;13.55;7.65;;;;;;;3.17;100.00;98852.13;5291057;27;20274;-79
2021/12/28 08:20:40;;;;;;;15.98;7.57;;;;;;;2.98;100.00;98854.44;5285323;28;20038;-80
2021/12/28 08:23:10;;;;;;;15.57;7.63;;;;;;;2.93;100.00;98852.91;5278823;27;20416;-79
2021/12/28 08:25:41;;;;;;;16.00;7.30;;;;;;;3.01;100.00;98853.53;5293791;27;20027;-78
2021/12/28 08:28:12;;;;;;;15.48;7.75;;;;;;;2.84;100.00;98854.06;5299027;27;20034;-79
2021/12/28 08:30:42;;;;;;;13.75;7.70;;;;;;;2.89;100.00;98854.75;5279616;27;20023;-78
2021/12/28 08:33:13;;;;;;;17.42;8.15;;;;;;;2.88;100.00;98847.06;5289367;27;20034;-79
2021/12/28 08:35:44;;;;;;;12.98;6.75;;;;;;;2.95;100.00;98848.53;5291601;27;20107;-78
2021/12/28 08:38:14;;;;;;;15.48;7.82;;;;;;;3.01;100.00;98843.19;5270829;28;20081;-83
2021/12/28 08:40:45;;;;;;;17.23;7.88;;;;;;;3.05;100.00;98844.78;5268402;28;20028;-84
2021/12/28 08:43:15;;;;;;;14.70;7.93;;;;;;;3.22;100.00;98839.91;5262575;28;20064;-78
2021/12/28 08:45:46;;;;;;;17.00;8.13;;;;;;;3.21;100.00;98845.94;5255061;27;20110;-78
2021/12/28 08:48:16;;;;;;;15.15;7.72;;;;;;;3.23;100.00;98844.16;5292249;27;20439;-78
2021/12/28 08:50:47;;;;;;;12.85;6.75;;;;;;;3.23;100.00;98839.00;5274901;28;20027;-80
2021/12/28 08:53:17;;;;;;;14.68;7.55;;;;;;;3.16;100.00;98827.22;5238235;28;20029;-80
2021/12/28 08:55:48;;;;;;;13.80;7.63;;;;;;;3.24;100.00;98822.63;5267657;27;20023;-80
2021/12/28 08:58:18;;;;;;;12.90;7.05;;;;;;;3.40;100.00;98828.94;5294137;27;20028;-79
2021/12/28 09:00:49;;;;;;;15.02;7.30;;;;;;;3.43;100.00;98836.56;5281359;27;20023;-78
2021/12/28 09:03:19;;;;;;;13.48;7.00;;;;;;;3.45;100.00;98830.47;5293902;27;20027;-83
2021/12/28 09:05:49;;;;;;;16.67;6.97;;;;;;;3.50;100.00;98825.16;5295606;27;20020;-81
2021/12/28 09:08:20;;;;;;;11.95;6.57;;;;;;;3.55;100.00;98821.47;5293595;27;20024;-80
2021/12/28 09:10:50;;;;;;;14.27;7.00;;;;;;;3.54;100.00;98818.97;5293641;27;20020;-78
2021/12/28 09:13:21;;;;;;;16.17;7.15;;;;;;;3.66;100.00;98827.97;5294874;27;20038;-77
2021/12/28 09:15:51;;;;;;;15.30;7.22;;;;;;;3.76;100.00;98826.72;5293973;27;20435;-80
2021/12/28 09:18:22;;;;;;;14.05;7.15;;;;;;;3.89;100.00;98833.13;5286609;27;20076;-81
2021/12/28 09:20:52;;;;;;;12.90;7.38;;;;;;;3.86;100.00;98833.25;5283965;27;20028;-81
2021/12/28 09:23:23;;;;;;;14.52;7.20;;;;;;;4.04;100.00;98823.97;5290398;27;20038;-78
2021/12/28 09:25:53;;;;;;;16.00;7.70;;;;;;;4.05;100.00;98818.75;5294616;27;20100;-77
2021/12/28 09:28:23;;;;;;;12.85;6.32;;;;;;;4.10;100.00;98822.00;5296128;27;20039;-79
2021/12/28 09:30:54;;;;;;;14.57;6.18;;;;;;;4.19;100.00;98811.31;5298119;27;20058;-80
2021/12/28 09:33:24;;;;;;;14.85;6.80;;;;;;;4.36;100.00;98823.59;5294204;27;20024;-81
2021/12/28 09:35:55;;;;;;;15.98;6.70;;;;;;;4.63;100.00;98819.94;5290214;27;20433;-78
2021/12/28 09:38:25;;;;;;;15.07;6.90;;;;;;;4.72;100.00;98811.78;5288409;27;20050;-77
2021/12/28 09:40:56;;;;;;;14.52;6.50;;;;;;;4.79;100.00;98805.47;5294299;27;20347;-77
2021/12/28 09:43:26;;;;;;;10.40;6.13;;;;;;;4.83;100.00;98792.31;5270170;28;20584;-80
2021/12/28 09:45:56;;;;;;;11.30;6.53;;;;;;;4.92;100.00;98797.13;5291921;27;20088;-81
2021/12/28 09:48:27;;;;;;;14.02;6.25;;;;;;;5.10;100.00;98796.38;5291704;27;20024;-80
2021/12/28 09:50:58;;;;;;;14.35;6.10;;;;;;;5.17;100.00;98786.59;5285106;27;20526;-79
2021/12/28 09:53:29;;;;;;;15.85;6.10;;;;;;;5.35;100.00;98784.03;5289427;27;20031;-81
2021/12/28 09:55:59;;;;;;;13.93;6.13;;;;;;;5.38;100.00;98785.66;5293892;27;20500;-78
2021/12/28 09:58:33;;;;;;;19.33;5.78;;;;;;;5.45;100.00;98787.91;5296769;27;20059;-80
2021/12/28 10:01:06;;;;;;;11.52;5.22;;;;;;;5.45;100.00;98785.34;5296409;27;20146;-78
2021/12/28 10:03:37;;;;;;;12.90;6.25;;;;;;;5.34;100.00;98776.34;5282223;27;20059;-78
2021/12/28 10:06:15;;;;;;;14.55;6.22;;;;;;;5.38;100.00;98780.47;5288748;27;20023;-79
2021/12/28 10:08:46;;;;;;;15.88;6.40;;;;;;;5.36;100.00;98780.53;5286884;27;20027;-80
2021/12/28 10:11:31;;;;;;;13.65;6.35;;;;;;;5.16;100.00;98780.56;5286551;27;20502;-77
2021/12/28 10:14:20;;;;;;;15.00;6.40;;;;;;;4.89;100.00;98775.72;5287300;27;20144;-78
2021/12/28 10:16:52;;;;;;;15.27;6.18;;;;;;;4.79;100.00;98771.84;5266661;27;20081;-80
2021/12/28 10:19:35;;;;;;;14.63;7.07;;;;;;;4.81;100.00;98770.03;5277460;27;20034;-78
2021/12/28 10:22:25;;;;;;;14.40;6.80;;;;;;;4.80;100.00;98764.00;5288068;27;20063;-78
2021/12/28 10:25:01;;;;;;;16.85;7.15;;;;;;;4.81;100.00;98762.25;5286404;27;20681;-79
2021/12/28 10:27:32;;;;;;;15.98;7.28;;;;;;;4.87;100.00;98755.09;5292882;27;20040;-78
2021/12/28 10:30:21;;;;;;;17.92;7.35;;;;;;;4.98;100.00;98758.03;5291659;27;20023;-78
2021/12/28 10:32:55;;;;;;;16.00;6.65;;;;;;;4.98;100.00;98739.94;5287713;27;20039;-81
2021/12/28 10:35:28;;;;;;;14.88;6.47;;;;;;;5.07;100.00;98739.56;5290252;27;20473;-78
2021/12/28 10:38:09;;;;;;;14.88;6.85;;;;;;;5.21;100.00;98734.63;5290867;27;20071;-78
2021/12/28 10:40:43;;;;;;;16.63;6.78;;;;;;;5.16;100.00;98743.50;5290607;27;20058;-79
2021/12/28 10:43:16;;;;;;;13.20;6.80;;;;;;;5.33;100.00;98736.66;5286439;27;20085;-83
2021/12/28 10:46:00;;;;;;;17.35;6.75;;;;;;;5.36;100.00;98731.34;5269427;28;20076;-81
2021/12/28 10:48:39;;;;;;;15.80;6.55;;;;;;;5.63;100.00;98722.34;5284007;27;20035;-82
2021/12/28 10:51:13;;;;;;;16.30;6.53;;;;;;;5.67;100.00;98723.88;5288383;28;20046;-78
2021/12/28 10:56:49;;;;;;;11.30;6.03;;;;;;;5.79;100.00;98718.19;5288698;28;20062;-78
2021/12/28 10:59:25;;;;;;;12.60;6.07;;;;;;;5.69;100.00;98716.88;5289293;28;20039;-79
2021/12/28 11:01:56;;;;;;;17.35;6.68;;;;;;;5.53;100.00;98702.94;5287776;28;20031;-78
2021/12/28 11:04:32;;;;;;;14.35;6.57;;;;;;;5.52;100.00;98690.88;5293945;27;20040;-78
2021/12/28 11:07:06;;;;;;;14.43;6.03;;;;;;;5.64;100.00;98691.19;5297037;27;20027;-79
2021/12/28 11:09:47;;;;;;;12.82;6.15;;;;;;;5.61;100.00;98687.91;5289030;27;20077;-79
2021/12/28 11:12:17;;;;;;;11.73;5.60;;;;;;;5.56;100.00;98685.50;5294056;27;20075;-79
2021/12/28 11:14:48;;;;;;;10.88;6.25;;;;;;;5.49;100.00;98686.72;5292631;27;20122;-79
2021/12/28 11:17:31;;;;;;;14.23;6.35;;;;;;;5.59;100.00;98679.34;5289365;27;20059;-80
2021/12/28 11:20:01;;;;;;;12.13;6.10;;;;;;;5.49;100.00;98672.91;5279145;28;20294;-78
2021/12/28 11:22:31;;;;;;;11.25;5.68;;;;;;;5.48;100.00;98676.41;5292379;27;20395;-79
2021/12/28 11:25:15;;;;;;;12.00;5.70;;;;;;;5.41;100.00;98673.25;5277217;27;20040;-78
2021/12/28 11:27:46;;;;;;;11.48;6.05;;;;;;;5.34;100.00;98665.00;5293932;27;20019;-78
2021/12/28 11:30:17;;;;;;;13.85;6.05;;;;;;;5.39;100.00;98667.31;5281253;27;20050;-78
2021/12/28 11:33:04;;;;;;;14.73;5.70;;;;;;;5.36;100.00;98663.19;5295596;27;20038;-80
2021/12/28 11:35:34;;;;;;;12.40;5.45;;;;;;;5.36;100.00;98658.81;5297129;27;20461;-79
2021/12/28 11:38:05;;;;;;;12.60;5.22;;;;;;;5.38;100.00;98663.03;5294553;27;20024;-77
2021/12/28 11:40:35;;;;;;;14.75;5.40;;;;;;;5.43;100.00;98658.47;5290004;27;20382;-81
2021/12/28 11:43:06;;;;;;;11.25;5.78;;;;;;;5.30;100.00;98651.34;5290138;27;20558;-81
2021/12/28 11:45:36;;;;;;;11.27;5.20;;;;;;;5.24;100.00;98662.00;5291312;27;20046;-79
2021/12/28 11:48:06;;;;;;;13.07;6.20;;;;;;;5.39;100.00;98656.13;5292310;27;20020;-80